sensor_id;sensor_type;location;lat;lon;timestamp;P1;durP1;ratioP1;P2;durP2;ratioP2
39772;SDS011;25451;51.960;6.250;2024-03-02T00:00:50;3.97;;;1.40;;
39772;SDS011;25451;51.960;6.250;2024-03-02T00:03:16;2.97;;;1.23;;
39772;SDS011;25451;51.960;6.250;2024-03-02T00:05:42;2.93;;;1.33;;
39772;SDS011;25451;51.960;6.250;2024-03-02T00:08:07;2.72;;;1.30;;
39772;SDS011;25451;51.960;6.250;2024-03-02T00:10:37;4.67;;;1.30;;
39772;SDS011;25451;51.960;6.250;2024-03-02T00:13:06;3.50;;;1.35;;
39772;SDS011;25451;51.960;6.250;2024-03-02T00:20:59;2.73;;;1.10;;
39772;SDS011;25451;51.960;6.250;2024-03-02T00:23:33;3.13;;;1.10;;
39772;SDS011;25451;51.960;6.250;2024-03-02T00:26:00;3.22;;;1.30;;
39772;SDS011;25451;51.960;6.250;2024-03-02T00:28:32;4.17;;;1.30;;
39772;SDS011;25451;51.960;6.250;2024-03-02T00:30:59;3.20;;;1.40;;
39772;SDS011;25451;51.960;6.250;2024-03-02T00:33:30;2.55;;;1.20;;
39772;SDS011;25451;51.960;6.250;2024-03-02T00:35:57;3.25;;;1.20;;
39772;SDS011;25451;51.960;6.250;2024-03-02T00:38:26;3.80;;;1.20;;
39772;SDS011;25451;51.960;6.250;2024-03-02T00:40:53;2.42;;;1.20;;
39772;SDS011;25451;51.960;6.250;2024-03-02T00:45:56;3.43;;;1.10;;
39772;SDS011;25451;51.960;6.250;2024-03-02T00:48:22;2.67;;;1.00;;
39772;SDS011;25451;51.960;6.250;2024-03-02T00:50:50;3.50;;;1.40;;
39772;SDS011;25451;51.960;6.250;2024-03-02T00:53:17;2.42;;;1.20;;
39772;SDS011;25451;51.960;6.250;2024-03-02T00:55:50;2.53;;;1.20;;
39772;SDS011;25451;51.960;6.250;2024-03-02T00:58:15;2.27;;;1.10;;
39772;SDS011;25451;51.960;6.250;2024-03-02T01:00:40;3.63;;;1.10;;
39772;SDS011;25451;51.960;6.250;2024-03-02T01:03:06;1.70;;;0.90;;
39772;SDS011;25451;51.960;6.250;2024-03-02T01:05:32;3.07;;;1.30;;
39772;SDS011;25451;51.960;6.250;2024-03-02T01:07:58;3.00;;;1.17;;
39772;SDS011;25451;51.960;6.250;2024-03-02T01:10:23;3.27;;;1.30;;
39772;SDS011;25451;51.960;6.250;2024-03-02T01:12:50;3.60;;;1.40;;
39772;SDS011;25451;51.960;6.250;2024-03-02T01:15:16;4.57;;;1.20;;
39772;SDS011;25451;51.960;6.250;2024-03-02T01:17:41;2.60;;;1.10;;
39772;SDS011;25451;51.960;6.250;2024-03-02T01:20:07;2.47;;;1.20;;
39772;SDS011;25451;51.960;6.250;2024-03-02T01:22:33;3.75;;;1.30;;
39772;SDS011;25451;51.960;6.250;2024-03-02T01:24:58;2.60;;;1.10;;
39772;SDS011;25451;51.960;6.250;2024-03-02T01:27:25;2.47;;;1.20;;
39772;SDS011;25451;51.960;6.250;2024-03-02T01:29:52;2.35;;;1.15;;
39772;SDS011;25451;51.960;6.250;2024-03-02T01:32:19;3.00;;;1.20;;
39772;SDS011;25451;51.960;6.250;2024-03-02T01:34:45;3.10;;;1.30;;
39772;SDS011;25451;51.960;6.250;2024-03-02T01:37:11;2.67;;;1.27;;
39772;SDS011;25451;51.960;6.250;2024-03-02T01:39:36;3.33;;;1.17;;
39772;SDS011;25451;51.960;6.250;2024-03-02T01:42:01;1.75;;;0.90;;
39772;SDS011;25451;51.960;6.250;2024-03-02T01:44:27;3.78;;;1.13;;
39772;SDS011;25451;51.960;6.250;2024-03-02T01:46:52;6.47;;;1.20;;
39772;SDS011;25451;51.960;6.250;2024-03-02T01:49:17;2.33;;;1.10;;
39772;SDS011;25451;51.960;6.250;2024-03-02T01:51:43;2.92;;;1.30;;
39772;SDS011;25451;51.960;6.250;2024-03-02T01:54:09;3.00;;;1.30;;
39772;SDS011;25451;51.960;6.250;2024-03-02T01:56:34;4.37;;;1.20;;
39772;SDS011;25451;51.960;6.250;2024-03-02T01:59:00;2.53;;;1.20;;
39772;SDS011;25451;51.960;6.250;2024-03-02T02:01:25;3.53;;;1.00;;
39772;SDS011;25451;51.960;6.250;2024-03-02T02:03:51;2.15;;;1.10;;
39772;SDS011;25451;51.960;6.250;2024-03-02T02:06:17;2.47;;;1.10;;
39772;SDS011;25451;51.960;6.250;2024-03-02T02:08:42;3.22;;;1.10;;
39772;SDS011;25451;51.960;6.250;2024-03-02T02:11:08;1.63;;;1.00;;
39772;SDS011;25451;51.960;6.250;2024-03-02T02:13:33;2.27;;;1.10;;
39772;SDS011;25451;51.960;6.250;2024-03-02T02:16:08;2.00;;;1.10;;
39772;SDS011;25451;51.960;6.250;2024-03-02T02:18:33;2.35;;;1.00;;
39772;SDS011;25451;51.960;6.250;2024-03-02T02:20:59;1.98;;;0.93;;
39772;SDS011;25451;51.960;6.250;2024-03-02T02:23:24;1.90;;;0.80;;
39772;SDS011;25451;51.960;6.250;2024-03-02T02:25:50;1.50;;;0.80;;
39772;SDS011;25451;51.960;6.250;2024-03-02T02:28:15;1.80;;;0.80;;
39772;SDS011;25451;51.960;6.250;2024-03-02T02:30:40;1.70;;;0.80;;
39772;SDS011;25451;51.960;6.250;2024-03-02T02:33:06;1.63;;;0.83;;
39772;SDS011;25451;51.960;6.250;2024-03-02T02:35:31;1.48;;;0.80;;
39772;SDS011;25451;51.960;6.250;2024-03-02T02:37:57;2.07;;;0.70;;
39772;SDS011;25451;51.960;6.250;2024-03-02T02:40:26;1.70;;;0.70;;
39772;SDS011;25451;51.960;6.250;2024-03-02T02:42:54;2.53;;;0.70;;
39772;SDS011;25451;51.960;6.250;2024-03-02T02:45:19;2.07;;;0.80;;
39772;SDS011;25451;51.960;6.250;2024-03-02T02:47:45;1.37;;;0.70;;
39772;SDS011;25451;51.960;6.250;2024-03-02T02:50:11;1.43;;;0.60;;
39772;SDS011;25451;51.960;6.250;2024-03-02T02:52:38;1.02;;;0.57;;
39772;SDS011;25451;51.960;6.250;2024-03-02T02:55:05;1.50;;;0.60;;
39772;SDS011;25451;51.960;6.250;2024-03-02T02:57:32;1.10;;;0.50;;
39772;SDS011;25451;51.960;6.250;2024-03-02T03:00:06;0.75;;;0.50;;
39772;SDS011;25451;51.960;6.250;2024-03-02T03:02:38;1.00;;;0.60;;
39772;SDS011;25451;51.960;6.250;2024-03-02T03:05:05;1.13;;;0.50;;
39772;SDS011;25451;51.960;6.250;2024-03-02T03:07:31;0.63;;;0.50;;
39772;SDS011;25451;51.960;6.250;2024-03-02T03:09:58;0.90;;;0.60;;
39772;SDS011;25451;51.960;6.250;2024-03-02T03:12:24;1.13;;;0.57;;
39772;SDS011;25451;51.960;6.250;2024-03-02T03:14:49;2.42;;;0.60;;
39772;SDS011;25451;51.960;6.250;2024-03-02T03:17:14;2.13;;;0.60;;
39772;SDS011;25451;51.960;6.250;2024-03-02T03:19:40;2.93;;;1.03;;
39772;SDS011;25451;51.960;6.250;2024-03-02T03:22:05;1.00;;;0.67;;
39772;SDS011;25451;51.960;6.250;2024-03-02T03:24:30;2.50;;;0.60;;
39772;SDS011;25451;51.960;6.250;2024-03-02T03:26:59;3.03;;;0.50;;
39772;SDS011;25451;51.960;6.250;2024-03-02T03:29:24;1.43;;;0.60;;
39772;SDS011;25451;51.960;6.250;2024-03-02T03:31:49;2.20;;;0.60;;
39772;SDS011;25451;51.960;6.250;2024-03-02T03:34:15;0.88;;;0.50;;
39772;SDS011;25451;51.960;6.250;2024-03-02T03:36:41;0.68;;;0.50;;
39772;SDS011;25451;51.960;6.250;2024-03-02T03:39:07;0.90;;;0.50;;
39772;SDS011;25451;51.960;6.250;2024-03-02T03:41:32;1.65;;;0.40;;
39772;SDS011;25451;51.960;6.250;2024-03-02T03:43:57;0.63;;;0.50;;
39772;SDS011;25451;51.960;6.250;2024-03-02T03:46:23;0.57;;;0.40;;
39772;SDS011;25451;51.960;6.250;2024-03-02T03:48:48;0.90;;;0.50;;
39772;SDS011;25451;51.960;6.250;2024-03-02T03:51:13;0.70;;;0.50;;
39772;SDS011;25451;51.960;6.250;2024-03-02T03:53:39;0.57;;;0.40;;
39772;SDS011;25451;51.960;6.250;2024-03-02T03:56:04;0.60;;;0.50;;
39772;SDS011;25451;51.960;6.250;2024-03-02T03:58:30;0.50;;;0.40;;
39772;SDS011;25451;51.960;6.250;2024-03-02T04:00:55;0.60;;;0.50;;
39772;SDS011;25451;51.960;6.250;2024-03-02T04:03:21;0.93;;;0.50;;
39772;SDS011;25451;51.960;6.250;2024-03-02T04:05:46;1.60;;;0.40;;
39772;SDS011;25451;51.960;6.250;2024-03-02T04:08:11;2.60;;;0.40;;
39772;SDS011;25451;51.960;6.250;2024-03-02T04:10:37;0.47;;;0.40;;
39772;SDS011;25451;51.960;6.250;2024-03-02T04:13:02;0.80;;;0.50;;
39772;SDS011;25451;51.960;6.250;2024-03-02T04:15:27;2.20;;;0.40;;
39772;SDS011;25451;51.960;6.250;2024-03-02T04:17:53;1.10;;;0.50;;
39772;SDS011;25451;51.960;6.250;2024-03-02T04:20:18;0.70;;;0.50;;
39772;SDS011;25451;51.960;6.250;2024-03-02T04:22:43;1.27;;;0.40;;
39772;SDS011;25451;51.960;6.250;2024-03-02T04:25:08;0.60;;;0.40;;
39772;SDS011;25451;51.960;6.250;2024-03-02T04:27:34;0.55;;;0.40;;
39772;SDS011;25451;51.960;6.250;2024-03-02T04:30:00;0.47;;;0.38;;
39772;SDS011;25451;51.960;6.250;2024-03-02T04:32:26;0.90;;;0.50;;
39772;SDS011;25451;51.960;6.250;2024-03-02T04:34:52;1.13;;;0.35;;
39772;SDS011;25451;51.960;6.250;2024-03-02T04:37:17;1.13;;;0.43;;
39772;SDS011;25451;51.960;6.250;2024-03-02T04:39:42;0.70;;;0.40;;
39772;SDS011;25451;51.960;6.250;2024-03-02T04:42:08;0.50;;;0.40;;
39772;SDS011;25451;51.960;6.250;2024-03-02T04:44:33;1.47;;;0.60;;
39772;SDS011;25451;51.960;6.250;2024-03-02T04:47:00;0.93;;;0.50;;
39772;SDS011;25451;51.960;6.250;2024-03-02T04:49:25;1.30;;;0.47;;
39772;SDS011;25451;51.960;6.250;2024-03-02T04:51:51;2.40;;;0.50;;
39772;SDS011;25451;51.960;6.250;2024-03-02T04:54:16;0.88;;;0.50;;
39772;SDS011;25451;51.960;6.250;2024-03-02T04:56:41;0.70;;;0.50;;
39772;SDS011;25451;51.960;6.250;2024-03-02T04:59:14;0.73;;;0.47;;
39772;SDS011;25451;51.960;6.250;2024-03-02T05:01:39;3.00;;;0.43;;
39772;SDS011;25451;51.960;6.250;2024-03-02T05:04:04;0.73;;;0.50;;
39772;SDS011;25451;51.960;6.250;2024-03-02T05:06:30;0.97;;;0.50;;
39772;SDS011;25451;51.960;6.250;2024-03-02T05:08:55;0.43;;;0.40;;
39772;SDS011;25451;51.960;6.250;2024-03-02T05:11:21;0.55;;;0.47;;
39772;SDS011;25451;51.960;6.250;2024-03-02T05:14:02;1.30;;;0.40;;
39772;SDS011;25451;51.960;6.250;2024-03-02T05:16:27;0.63;;;0.50;;
39772;SDS011;25451;51.960;6.250;2024-03-02T05:18:53;0.50;;;0.50;;
39772;SDS011;25451;51.960;6.250;2024-03-02T05:21:19;0.50;;;0.40;;
39772;SDS011;25451;51.960;6.250;2024-03-02T05:23:45;0.82;;;0.43;;
39772;SDS011;25451;51.960;6.250;2024-03-02T05:26:10;0.63;;;0.43;;
39772;SDS011;25451;51.960;6.250;2024-03-02T05:28:39;0.85;;;0.40;;
39772;SDS011;25451;51.960;6.250;2024-03-02T05:31:04;0.40;;;0.40;;
39772;SDS011;25451;51.960;6.250;2024-03-02T05:33:30;1.35;;;0.50;;
39772;SDS011;25451;51.960;6.250;2024-03-02T05:35:58;0.68;;;0.40;;
39772;SDS011;25451;51.960;6.250;2024-03-02T05:38:23;2.20;;;0.50;;
39772;SDS011;25451;51.960;6.250;2024-03-02T05:40:48;1.53;;;0.50;;
39772;SDS011;25451;51.960;6.250;2024-03-02T05:43:14;1.80;;;0.50;;
39772;SDS011;25451;51.960;6.250;2024-03-02T05:45:39;1.07;;;0.40;;
39772;SDS011;25451;51.960;6.250;2024-03-02T05:48:05;0.50;;;0.40;;
39772;SDS011;25451;51.960;6.250;2024-03-02T05:50:34;0.65;;;0.40;;
39772;SDS011;25451;51.960;6.250;2024-03-02T05:52:59;0.45;;;0.40;;
39772;SDS011;25451;51.960;6.250;2024-03-02T05:55:25;0.88;;;0.43;;
39772;SDS011;25451;51.960;6.250;2024-03-02T05:57:50;0.50;;;0.40;;
39772;SDS011;25451;51.960;6.250;2024-03-02T06:00:33;0.70;;;0.40;;
39772;SDS011;25451;51.960;6.250;2024-03-02T06:02:59;0.47;;;0.40;;
39772;SDS011;25451;51.960;6.250;2024-03-02T06:05:24;0.67;;;0.50;;
39772;SDS011;25451;51.960;6.250;2024-03-02T06:07:50;1.05;;;0.40;;
39772;SDS011;25451;51.960;6.250;2024-03-02T06:10:15;0.77;;;0.47;;
39772;SDS011;25451;51.960;6.250;2024-03-02T06:12:41;0.93;;;0.50;;
39772;SDS011;25451;51.960;6.250;2024-03-02T06:15:06;2.20;;;0.50;;
39772;SDS011;25451;51.960;6.250;2024-03-02T06:17:32;0.83;;;0.40;;
39772;SDS011;25451;51.960;6.250;2024-03-02T06:20:00;1.95;;;0.50;;
39772;SDS011;25451;51.960;6.250;2024-03-02T06:22:25;0.67;;;0.40;;
39772;SDS011;25451;51.960;6.250;2024-03-02T06:24:51;1.50;;;0.63;;
39772;SDS011;25451;51.960;6.250;2024-03-02T06:27:16;0.80;;;0.50;;
39772;SDS011;25451;51.960;6.250;2024-03-02T06:29:41;0.73;;;0.50;;
39772;SDS011;25451;51.960;6.250;2024-03-02T06:32:07;1.42;;;0.43;;
39772;SDS011;25451;51.960;6.250;2024-03-02T06:34:32;1.03;;;0.60;;
39772;SDS011;25451;51.960;6.250;2024-03-02T06:36:57;0.90;;;0.50;;
39772;SDS011;25451;51.960;6.250;2024-03-02T06:39:23;0.63;;;0.50;;
39772;SDS011;25451;51.960;6.250;2024-03-02T06:41:48;0.53;;;0.50;;
39772;SDS011;25451;51.960;6.250;2024-03-02T06:44:13;1.50;;;0.50;;
39772;SDS011;25451;51.960;6.250;2024-03-02T06:46:39;1.13;;;0.50;;
39772;SDS011;25451;51.960;6.250;2024-03-02T06:49:04;1.23;;;0.60;;
39772;SDS011;25451;51.960;6.250;2024-03-02T06:51:29;4.57;;;0.80;;
39772;SDS011;25451;51.960;6.250;2024-03-02T06:53:55;1.03;;;0.60;;
39772;SDS011;25451;51.960;6.250;2024-03-02T06:56:20;0.93;;;0.60;;
39772;SDS011;25451;51.960;6.250;2024-03-02T06:58:46;1.47;;;0.57;;
39772;SDS011;25451;51.960;6.250;2024-03-02T07:01:12;1.13;;;0.50;;
39772;SDS011;25451;51.960;6.250;2024-03-02T07:03:37;1.90;;;0.60;;
39772;SDS011;25451;51.960;6.250;2024-03-02T07:06:04;1.83;;;0.60;;
39772;SDS011;25451;51.960;6.250;2024-03-02T07:08:30;1.77;;;0.80;;
39772;SDS011;25451;51.960;6.250;2024-03-02T07:10:55;0.70;;;0.50;;
39772;SDS011;25451;51.960;6.250;2024-03-02T07:13:21;1.10;;;0.60;;
39772;SDS011;25451;51.960;6.250;2024-03-02T07:15:46;0.97;;;0.50;;
39772;SDS011;25451;51.960;6.250;2024-03-02T07:18:30;2.85;;;1.10;;
39772;SDS011;25451;51.960;6.250;2024-03-02T07:20:56;2.38;;;1.20;;
39772;SDS011;25451;51.960;6.250;2024-03-02T07:23:26;3.88;;;1.52;;
39772;SDS011;25451;51.960;6.250;2024-03-02T07:25:53;3.85;;;1.67;;
39772;SDS011;25451;51.960;6.250;2024-03-02T07:28:21;3.40;;;1.48;;
39772;SDS011;25451;51.960;6.250;2024-03-02T07:30:47;3.10;;;1.30;;
39772;SDS011;25451;51.960;6.250;2024-03-02T07:33:22;2.67;;;1.30;;
39772;SDS011;25451;51.960;6.250;2024-03-02T07:35:48;1.98;;;1.00;;
39772;SDS011;25451;51.960;6.250;2024-03-02T07:38:13;1.50;;;0.70;;
39772;SDS011;25451;51.960;6.250;2024-03-02T07:40:38;1.73;;;0.80;;
39772;SDS011;25451;51.960;6.250;2024-03-02T07:43:04;1.52;;;0.70;;
39772;SDS011;25451;51.960;6.250;2024-03-02T07:45:29;1.27;;;0.70;;
39772;SDS011;25451;51.960;6.250;2024-03-02T07:47:55;2.30;;;1.00;;
39772;SDS011;25451;51.960;6.250;2024-03-02T07:50:20;1.63;;;0.70;;
39772;SDS011;25451;51.960;6.250;2024-03-02T07:52:45;4.00;;;0.70;;
39772;SDS011;25451;51.960;6.250;2024-03-02T07:55:11;2.47;;;0.77;;
39772;SDS011;25451;51.960;6.250;2024-03-02T07:57:36;1.20;;;0.70;;
39772;SDS011;25451;51.960;6.250;2024-03-02T08:00:02;2.17;;;0.70;;
39772;SDS011;25451;51.960;6.250;2024-03-02T08:02:27;4.83;;;1.00;;
39772;SDS011;25451;51.960;6.250;2024-03-02T08:04:52;2.40;;;0.70;;
39772;SDS011;25451;51.960;6.250;2024-03-02T08:07:18;1.80;;;0.80;;
39772;SDS011;25451;51.960;6.250;2024-03-02T08:09:43;1.30;;;0.90;;
39772;SDS011;25451;51.960;6.250;2024-03-02T08:12:08;3.47;;;1.10;;
39772;SDS011;25451;51.960;6.250;2024-03-02T08:14:34;3.17;;;0.90;;
39772;SDS011;25451;51.960;6.250;2024-03-02T08:16:59;2.10;;;1.00;;
39772;SDS011;25451;51.960;6.250;2024-03-02T08:19:26;1.90;;;0.80;;
39772;SDS011;25451;51.960;6.250;2024-03-02T08:21:51;1.63;;;0.80;;
39772;SDS011;25451;51.960;6.250;2024-03-02T08:24:17;2.40;;;0.90;;
39772;SDS011;25451;51.960;6.250;2024-03-02T08:26:42;2.63;;;0.90;;
39772;SDS011;25451;51.960;6.250;2024-03-02T08:29:08;0.93;;;0.70;;
39772;SDS011;25451;51.960;6.250;2024-03-02T08:31:33;2.10;;;0.97;;
39772;SDS011;25451;51.960;6.250;2024-03-02T08:33:59;1.70;;;0.80;;
39772;SDS011;25451;51.960;6.250;2024-03-02T08:36:24;1.88;;;0.90;;
39772;SDS011;25451;51.960;6.250;2024-03-02T08:38:50;1.60;;;0.83;;
39772;SDS011;25451;51.960;6.250;2024-03-02T08:41:15;2.33;;;0.90;;
39772;SDS011;25451;51.960;6.250;2024-03-02T08:43:41;1.55;;;0.80;;
39772;SDS011;25451;51.960;6.250;2024-03-02T08:46:07;3.85;;;0.90;;
39772;SDS011;25451;51.960;6.250;2024-03-02T08:48:32;2.72;;;0.80;;
39772;SDS011;25451;51.960;6.250;2024-03-02T08:50:58;2.28;;;0.90;;
39772;SDS011;25451;51.960;6.250;2024-03-02T08:53:23;2.63;;;0.85;;
39772;SDS011;25451;51.960;6.250;2024-03-02T08:55:48;1.50;;;0.70;;
39772;SDS011;25451;51.960;6.250;2024-03-02T08:58:14;3.10;;;0.93;;
39772;SDS011;25451;51.960;6.250;2024-03-02T09:00:39;2.50;;;0.80;;
39772;SDS011;25451;51.960;6.250;2024-03-02T09:03:05;3.08;;;0.90;;
39772;SDS011;25451;51.960;6.250;2024-03-02T09:05:31;4.07;;;0.80;;
39772;SDS011;25451;51.960;6.250;2024-03-02T09:07:56;1.60;;;0.80;;
39772;SDS011;25451;51.960;6.250;2024-03-02T09:10:21;1.40;;;0.60;;
39772;SDS011;25451;51.960;6.250;2024-03-02T09:12:47;2.55;;;0.77;;
39772;SDS011;25451;51.960;6.250;2024-03-02T09:15:12;1.93;;;0.73;;
39772;SDS011;25451;51.960;6.250;2024-03-02T09:17:38;2.10;;;0.60;;
39772;SDS011;25451;51.960;6.250;2024-03-02T09:20:04;3.70;;;0.80;;
39772;SDS011;25451;51.960;6.250;2024-03-02T09:22:33;3.38;;;1.10;;
39772;SDS011;25451;51.960;6.250;2024-03-02T09:24:58;3.35;;;0.80;;
39772;SDS011;25451;51.960;6.250;2024-03-02T09:27:24;3.57;;;0.73;;
39772;SDS011;25451;51.960;6.250;2024-03-02T09:29:49;2.13;;;0.73;;
39772;SDS011;25451;51.960;6.250;2024-03-02T09:32:15;3.63;;;1.00;;
39772;SDS011;25451;51.960;6.250;2024-03-02T09:34:40;1.47;;;0.70;;
39772;SDS011;25451;51.960;6.250;2024-03-02T09:37:06;2.53;;;0.70;;
39772;SDS011;25451;51.960;6.250;2024-03-02T09:39:31;2.05;;;0.70;;
39772;SDS011;25451;51.960;6.250;2024-03-02T09:41:57;3.03;;;0.63;;
39772;SDS011;25451;51.960;6.250;2024-03-02T09:44:24;1.60;;;0.73;;
39772;SDS011;25451;51.960;6.250;2024-03-02T09:46:50;3.38;;;0.80;;
39772;SDS011;25451;51.960;6.250;2024-03-02T09:49:17;2.77;;;1.20;;
39772;SDS011;25451;51.960;6.250;2024-03-02T09:51:46;1.83;;;0.88;;
39772;SDS011;25451;51.960;6.250;2024-03-02T09:54:13;1.55;;;0.63;;
39772;SDS011;25451;51.960;6.250;2024-03-02T09:56:39;1.90;;;0.75;;
39772;SDS011;25451;51.960;6.250;2024-03-02T09:59:04;3.10;;;0.90;;
39772;SDS011;25451;51.960;6.250;2024-03-02T10:01:30;2.10;;;0.70;;
39772;SDS011;25451;51.960;6.250;2024-03-02T10:03:57;2.85;;;0.88;;
39772;SDS011;25451;51.960;6.250;2024-03-02T10:06:25;2.67;;;0.73;;
39772;SDS011;25451;51.960;6.250;2024-03-02T10:08:52;3.25;;;0.95;;
39772;SDS011;25451;51.960;6.250;2024-03-02T10:14:15;1.90;;;0.70;;
39772;SDS011;25451;51.960;6.250;2024-03-02T10:16:43;1.33;;;0.60;;
39772;SDS011;25451;51.960;6.250;2024-03-02T10:19:16;3.60;;;0.70;;
39772;SDS011;25451;51.960;6.250;2024-03-02T10:21:49;3.03;;;0.60;;
39772;SDS011;25451;51.960;6.250;2024-03-02T10:24:14;2.30;;;0.63;;
39772;SDS011;25451;51.960;6.250;2024-03-02T10:26:40;2.90;;;0.60;;
39772;SDS011;25451;51.960;6.250;2024-03-02T10:29:07;2.88;;;0.65;;
39772;SDS011;25451;51.960;6.250;2024-03-02T10:31:33;2.23;;;0.70;;
39772;SDS011;25451;51.960;6.250;2024-03-02T10:33:58;1.63;;;0.70;;
39772;SDS011;25451;51.960;6.250;2024-03-02T10:36:25;3.83;;;0.93;;
39772;SDS011;25451;51.960;6.250;2024-03-02T10:38:51;4.75;;;1.17;;
39772;SDS011;25451;51.960;6.250;2024-03-02T10:41:20;2.58;;;1.00;;
39772;SDS011;25451;51.960;6.250;2024-03-02T10:43:49;3.17;;;0.80;;
39772;SDS011;25451;51.960;6.250;2024-03-02T10:46:17;1.75;;;0.68;;
39772;SDS011;25451;51.960;6.250;2024-03-02T10:48:44;1.80;;;0.70;;
39772;SDS011;25451;51.960;6.250;2024-03-02T10:51:11;2.50;;;0.70;;
39772;SDS011;25451;51.960;6.250;2024-03-02T10:53:36;1.63;;;0.68;;
39772;SDS011;25451;51.960;6.250;2024-03-02T10:56:02;3.20;;;0.70;;
39772;SDS011;25451;51.960;6.250;2024-03-02T10:58:32;2.63;;;0.65;;
39772;SDS011;25451;51.960;6.250;2024-03-02T11:01:02;1.05;;;0.60;;
39772;SDS011;25451;51.960;6.250;2024-03-02T11:03:29;2.60;;;0.77;;
39772;SDS011;25451;51.960;6.250;2024-03-02T11:05:58;1.73;;;0.63;;
39772;SDS011;25451;51.960;6.250;2024-03-02T11:08:25;4.20;;;0.68;;
39772;SDS011;25451;51.960;6.250;2024-03-02T11:10:58;1.67;;;0.50;;
39772;SDS011;25451;51.960;6.250;2024-03-02T11:13:31;2.30;;;0.70;;
39772;SDS011;25451;51.960;6.250;2024-03-02T11:16:05;0.93;;;0.60;;
39772;SDS011;25451;51.960;6.250;2024-03-02T11:18:35;2.95;;;0.80;;
39772;SDS011;25451;51.960;6.250;2024-03-02T11:21:01;1.80;;;0.60;;
39772;SDS011;25451;51.960;6.250;2024-03-02T11:23:32;3.53;;;0.70;;
39772;SDS011;25451;51.960;6.250;2024-03-02T11:26:17;2.45;;;0.60;;
39772;SDS011;25451;51.960;6.250;2024-03-02T11:28:48;2.13;;;0.70;;
39772;SDS011;25451;51.960;6.250;2024-03-02T11:31:13;2.42;;;0.80;;
39772;SDS011;25451;51.960;6.250;2024-03-02T11:33:38;1.43;;;0.90;;
39772;SDS011;25451;51.960;6.250;2024-03-02T11:36:06;3.10;;;0.80;;
39772;SDS011;25451;51.960;6.250;2024-03-02T11:38:32;3.22;;;0.80;;
39772;SDS011;25451;51.960;6.250;2024-03-02T11:41:03;2.42;;;0.98;;
39772;SDS011;25451;51.960;6.250;2024-03-02T11:43:33;3.90;;;1.27;;
39772;SDS011;25451;51.960;6.250;2024-03-02T11:46:05;2.55;;;1.02;;
39772;SDS011;25451;51.960;6.250;2024-03-02T11:48:32;2.97;;;1.02;;
39772;SDS011;25451;51.960;6.250;2024-03-02T11:51:00;2.63;;;1.20;;
39772;SDS011;25451;51.960;6.250;2024-03-02T11:53:26;4.22;;;0.98;;
39772;SDS011;25451;51.960;6.250;2024-03-02T11:55:55;2.08;;;1.00;;
39772;SDS011;25451;51.960;6.250;2024-03-02T11:58:21;2.67;;;1.00;;
39772;SDS011;25451;51.960;6.250;2024-03-02T12:00:55;3.03;;;1.20;;
39772;SDS011;25451;51.960;6.250;2024-03-02T12:03:24;1.98;;;1.13;;
39772;SDS011;25451;51.960;6.250;2024-03-02T12:05:51;2.63;;;1.20;;
39772;SDS011;25451;51.960;6.250;2024-03-02T12:08:18;2.80;;;1.25;;
39772;SDS011;25451;51.960;6.250;2024-03-02T12:10:55;4.38;;;1.17;;
39772;SDS011;25451;51.960;6.250;2024-03-02T12:13:25;4.03;;;1.00;;
39772;SDS011;25451;51.960;6.250;2024-03-02T12:15:53;2.53;;;0.80;;
39772;SDS011;25451;51.960;6.250;2024-03-02T12:18:21;3.40;;;1.10;;
39772;SDS011;25451;51.960;6.250;2024-03-02T12:20:48;4.97;;;0.97;;
39772;SDS011;25451;51.960;6.250;2024-03-02T12:23:14;2.88;;;1.02;;
39772;SDS011;25451;51.960;6.250;2024-03-02T12:25:39;2.50;;;1.17;;
39772;SDS011;25451;51.960;6.250;2024-03-02T12:28:05;2.35;;;1.20;;
39772;SDS011;25451;51.960;6.250;2024-03-02T12:30:32;2.63;;;1.00;;
39772;SDS011;25451;51.960;6.250;2024-03-02T12:33:00;2.88;;;1.20;;
39772;SDS011;25451;51.960;6.250;2024-03-02T12:35:26;1.50;;;1.00;;
39772;SDS011;25451;51.960;6.250;2024-03-02T12:37:51;2.67;;;1.13;;
39772;SDS011;25451;51.960;6.250;2024-03-02T12:40:18;3.30;;;1.20;;
39772;SDS011;25451;51.960;6.250;2024-03-02T12:42:45;2.83;;;0.90;;
39772;SDS011;25451;51.960;6.250;2024-03-02T12:45:11;3.20;;;1.08;;
39772;SDS011;25451;51.960;6.250;2024-03-02T12:47:39;4.18;;;1.00;;
39772;SDS011;25451;51.960;6.250;2024-03-02T12:50:05;2.08;;;1.02;;
39772;SDS011;25451;51.960;6.250;2024-03-02T12:52:31;1.75;;;0.80;;
39772;SDS011;25451;51.960;6.250;2024-03-02T12:54:58;1.48;;;0.68;;
39772;SDS011;25451;51.960;6.250;2024-03-02T12:57:33;1.55;;;0.80;;
39772;SDS011;25451;51.960;6.250;2024-03-02T13:00:19;1.58;;;0.60;;
39772;SDS011;25451;51.960;6.250;2024-03-02T13:02:45;1.02;;;0.60;;
39772;SDS011;25451;51.960;6.250;2024-03-02T13:05:11;2.25;;;0.70;;
39772;SDS011;25451;51.960;6.250;2024-03-02T13:07:39;1.93;;;0.87;;
39772;SDS011;25451;51.960;6.250;2024-03-02T13:10:06;4.20;;;0.70;;
39772;SDS011;25451;51.960;6.250;2024-03-02T13:12:34;2.55;;;0.73;;
39772;SDS011;25451;51.960;6.250;2024-03-02T13:15:00;2.00;;;0.60;;
39772;SDS011;25451;51.960;6.250;2024-03-02T13:17:28;2.13;;;0.60;;
39772;SDS011;25451;51.960;6.250;2024-03-02T13:19:57;1.27;;;0.63;;
39772;SDS011;25451;51.960;6.250;2024-03-02T13:22:26;1.55;;;0.60;;
39772;SDS011;25451;51.960;6.250;2024-03-02T13:24:52;1.65;;;0.60;;
39772;SDS011;25451;51.960;6.250;2024-03-02T13:27:21;1.63;;;0.63;;
39772;SDS011;25451;51.960;6.250;2024-03-02T13:29:46;1.77;;;0.77;;
39772;SDS011;25451;51.960;6.250;2024-03-02T13:32:13;1.77;;;0.60;;
39772;SDS011;25451;51.960;6.250;2024-03-02T13:34:39;2.97;;;0.75;;
39772;SDS011;25451;51.960;6.250;2024-03-02T13:37:04;3.47;;;1.10;;
39772;SDS011;25451;51.960;6.250;2024-03-02T13:39:30;1.30;;;0.60;;
39772;SDS011;25451;51.960;6.250;2024-03-02T13:42:10;1.92;;;0.60;;
39772;SDS011;25451;51.960;6.250;2024-03-02T13:44:38;2.77;;;0.87;;
39772;SDS011;25451;51.960;6.250;2024-03-02T13:47:07;2.78;;;0.80;;
39772;SDS011;25451;51.960;6.250;2024-03-02T13:49:32;4.45;;;0.90;;
39772;SDS011;25451;51.960;6.250;2024-03-02T13:52:05;4.18;;;1.08;;
39772;SDS011;25451;51.960;6.250;2024-03-02T13:54:39;2.55;;;0.90;;
39772;SDS011;25451;51.960;6.250;2024-03-02T13:57:09;3.13;;;0.90;;
39772;SDS011;25451;51.960;6.250;2024-03-02T13:59:35;1.90;;;0.90;;
39772;SDS011;25451;51.960;6.250;2024-03-02T14:02:01;3.17;;;1.10;;
39772;SDS011;25451;51.960;6.250;2024-03-02T14:04:28;2.40;;;0.80;;
39772;SDS011;25451;51.960;6.250;2024-03-02T14:06:54;2.15;;;0.85;;
39772;SDS011;25451;51.960;6.250;2024-03-02T14:09:19;1.80;;;0.87;;
39772;SDS011;25451;51.960;6.250;2024-03-02T14:11:45;2.53;;;0.80;;
39772;SDS011;25451;51.960;6.250;2024-03-02T14:14:11;2.92;;;0.77;;
39772;SDS011;25451;51.960;6.250;2024-03-02T14:16:36;2.13;;;0.90;;
39772;SDS011;25451;51.960;6.250;2024-03-02T14:19:01;1.53;;;0.80;;
39772;SDS011;25451;51.960;6.250;2024-03-02T14:21:29;2.00;;;0.70;;
39772;SDS011;25451;51.960;6.250;2024-03-02T14:23:54;2.80;;;0.77;;
39772;SDS011;25451;51.960;6.250;2024-03-02T14:26:20;2.20;;;0.80;;
39772;SDS011;25451;51.960;6.250;2024-03-02T14:28:45;1.60;;;0.80;;
39772;SDS011;25451;51.960;6.250;2024-03-02T14:31:11;1.88;;;0.80;;
39772;SDS011;25451;51.960;6.250;2024-03-02T14:33:36;2.60;;;0.90;;
39772;SDS011;25451;51.960;6.250;2024-03-02T14:36:02;1.03;;;0.67;;
39772;SDS011;25451;51.960;6.250;2024-03-02T14:38:29;2.88;;;0.98;;
39772;SDS011;25451;51.960;6.250;2024-03-02T14:40:54;4.97;;;1.17;;
39772;SDS011;25451;51.960;6.250;2024-03-02T14:43:20;4.13;;;1.17;;
39772;SDS011;25451;51.960;6.250;2024-03-02T14:45:45;2.93;;;0.80;;
39772;SDS011;25451;51.960;6.250;2024-03-02T14:48:11;3.90;;;1.35;;
39772;SDS011;25451;51.960;6.250;2024-03-02T14:50:36;2.60;;;1.20;;
39772;SDS011;25451;51.960;6.250;2024-03-02T14:53:02;3.83;;;1.13;;
39772;SDS011;25451;51.960;6.250;2024-03-02T14:55:27;8.37;;;1.40;;